KOPL/OPL METAR and TAF weather

Enter ICAO airport designator
Station Type Date Time Source
KOPL METAR 2019/05/25 15:15 UTC NOAA

KOPL 251515Z AUTO 08006KT 10SM BKN023 BKN028 28/22 A3014 RMK AO2 T02800215


Station Type Date Time Source
KOPL Decoded METAR 2019/05/25 15:15 UTC NOAA

Station name not available
May 25, 2019 - 11:15 AM EDT / 2019.05.25 1515 UTC
Wind: from the E (080 degrees) at 7 MPH (6 KT):0
Visibility: 10 mile(s):0
Sky conditions: mostly cloudy
Temperature: 82.4 F (28.0 C)
Dew Point: 70.7 F (21.5 C)
Relative Humidity: 67%
Pressure (altimeter): 30.14 in. Hg (1020 hPa)
ob: KOPL 251515Z AUTO 08006KT 10SM BKN023 BKN028 28/22 A3014 RMK AO2 T02800215
cycle: 15

Station Type Date Time Source
KOPL TAF UTC NOAA

Error!

Example: see airport list